Terminal Aerodrome Forecast
Issued by NWS

Home | Current Version | Previous Version | Text Only | Print | Product List | Glossary On
Versions: 1 2 3 4 5 6 7 8 9 10 11 12 13 14 15 16 17 18 19 20
000
FTUS44 KCRP 311700
TAFALI
TAF
KALI 311740Z 3118/0118 18012G18KT P6SM SCT040
     FM312200 14015G20KT P6SM BKN050
     FM010100 15012KT P6SM VCTS SCT035CB BKN150
     FM010300 17005KT P6SM SCT020 BKN100
      TEMPO 0109/0113 BKN015 OVC100
     FM011500 VRB03KT P6SM VCSH BKN030 OVC100 PROB30 0115/0118 3SM
      TSRA OVC025CB=

USA.gov is the U.S. government's official web portal to all federal, state and local government web resources and services.